createdAt,value
2018-05-18T00:02:12.693Z,100150.13
2018-05-18T00:04:44.951Z,100158.52
2018-05-18T00:07:18.882Z,100155.77
2018-05-18T00:09:51.542Z,100159.88
2018-05-18T00:12:22.989Z,100163.75
2018-05-18T00:14:54.310Z,100165.19
2018-05-18T00:17:25.954Z,100167.62
2018-05-18T00:19:57.424Z,100167.52
2018-05-18T00:22:29.987Z,100161.48
2018-05-18T00:25:01.288Z,100164.55
2018-05-18T00:27:35.492Z,100160.27
2018-05-18T00:30:06.855Z,100158.48
2018-05-18T00:32:38.211Z,100161.94
2018-05-18T00:35:09.782Z,100157.39
2018-05-18T00:37:41.250Z,100160.10
2018-05-18T00:40:13.434Z,100164.38
2018-05-18T00:42:44.958Z,100169.09
2018-05-18T00:45:17.178Z,100159.98
2018-05-18T00:47:50.396Z,100158.06
2018-05-18T00:50:22.610Z,100158.28
2018-05-18T00:52:54.018Z,100162.53
2018-05-18T00:55:40.028Z,100160.92
2018-05-18T00:58:11.298Z,100155.87
2018-05-18T01:00:43.790Z,100161.78
2018-05-18T01:03:15.206Z,100162.16
2018-05-18T01:05:48.509Z,100160.97
2018-05-18T01:08:19.896Z,100165.39
2018-05-18T01:10:51.639Z,100170.59
2018-05-18T01:13:24.273Z,100164.12
2018-05-18T01:15:56.612Z,100163.42
2018-05-18T01:18:28.389Z,100168.58
2018-05-18T01:21:00.316Z,100165.30
2018-05-18T01:36:44.326Z,100177.45
2018-05-18T01:41:55.809Z,100181.92
2018-05-18T01:44:27.387Z,100174.37
2018-05-18T01:46:58.750Z,100178.61
2018-05-18T01:49:30.278Z,100179.36
2018-05-18T01:52:01.660Z,100185.48
2018-05-18T01:54:33.370Z,100180.88
2018-05-18T01:57:05.650Z,100188.08
2018-05-18T01:59:38.129Z,100188.58
2018-05-18T02:02:09.714Z,100180.20
2018-05-18T02:04:41.097Z,100187.38
2018-05-18T02:07:12.389Z,100190.67
2018-05-18T02:09:45.354Z,100187.97
2018-05-18T02:12:17.866Z,100189.98
2018-05-18T02:14:51.129Z,100196.63
2018-05-18T02:17:22.313Z,100193.56
2018-05-18T02:19:53.839Z,100195.55
2018-05-18T02:22:25.432Z,100199.16
2018-05-18T02:24:57.608Z,100193.00
2018-05-18T02:27:29.549Z,100202.02
2018-05-18T02:30:00.870Z,100205.17
2018-05-18T02:32:31.961Z,100200.17
2018-05-18T02:35:04.739Z,100198.66
2018-05-18T02:37:36.042Z,100193.98
2018-05-18T02:40:07.456Z,100206.89
2018-05-18T02:42:39.041Z,100196.40
2018-05-18T02:45:10.376Z,100206.43
2018-05-18T02:47:43.939Z,100207.32
2018-05-18T02:50:16.109Z,100207.25
2018-05-18T02:52:49.223Z,100206.74
2018-05-18T02:55:20.590Z,100207.41
2018-05-18T02:57:52.485Z,100206.45
2018-05-18T03:00:24.994Z,100201.61
2018-05-18T03:02:56.278Z,100214.47
2018-05-18T03:05:28.534Z,100209.33
2018-05-18T03:07:59.892Z,100207.27
2018-05-18T03:10:32.266Z,100209.21
2018-05-18T03:13:03.841Z,100214.36
2018-05-18T03:15:35.142Z,100216.53
2018-05-18T03:18:06.836Z,100209.61
2018-05-18T03:20:39.218Z,100208.55
2018-05-18T03:23:11.915Z,100213.35
2018-05-18T03:25:43.044Z,100214.80
2018-05-18T03:28:14.410Z,100215.14
2018-05-18T03:30:47.090Z,100218.38
2018-05-18T03:33:21.045Z,100221.31
2018-05-18T03:35:53.736Z,100222.59
2018-05-18T03:38:25.883Z,100216.50
2018-05-18T03:40:57.335Z,100221.61
2018-05-18T03:43:28.677Z,100218.77
2018-05-18T03:46:00.921Z,100212.56
2018-05-18T03:48:33.406Z,100230.05
2018-05-18T03:51:05.657Z,100219.55
2018-05-18T03:53:37.135Z,100222.06
2018-05-18T03:56:10.677Z,100226.03
2018-05-18T03:58:42.550Z,100221.62
2018-05-18T04:01:23.736Z,100229.16
2018-05-18T04:06:09.609Z,100229.92
2018-05-18T04:08:41.740Z,100226.59
2018-05-18T04:11:13.205Z,100227.88
2018-05-18T04:13:44.901Z,100229.80
2018-05-18T04:16:16.900Z,100227.64
2018-05-18T04:18:48.909Z,100228.39
2018-05-18T04:21:20.473Z,100233.83
2018-05-18T04:23:52.538Z,100236.02
2018-05-18T04:26:24.762Z,100242.83
2018-05-18T04:28:56.173Z,100242.92
2018-05-18T04:31:27.695Z,100245.36
2018-05-18T04:33:58.965Z,100246.04
2018-05-18T04:36:30.439Z,100247.76
2018-05-18T04:39:01.708Z,100250.21
2018-05-18T04:41:33.774Z,100253.38
2018-05-18T04:44:05.079Z,100245.36
2018-05-18T04:46:36.530Z,100253.77
2018-05-18T04:49:07.907Z,100250.73
2018-05-18T04:51:39.249Z,100253.17
2018-05-18T04:54:10.606Z,100258.57
2018-05-18T04:56:41.954Z,100256.57
2018-05-18T04:59:13.186Z,100256.38
2018-05-18T05:01:45.387Z,100252.25
2018-05-18T05:04:16.677Z,100251.23
2018-05-18T05:06:48.906Z,100256.04
2018-05-18T05:09:20.206Z,100254.63
2018-05-18T05:11:51.544Z,100255.61
2018-05-18T05:14:22.993Z,100263.06
2018-05-18T05:16:54.607Z,100256.77
2018-05-18T05:19:25.957Z,100264.70
2018-05-18T05:21:57.249Z,100261.73
2018-05-18T05:24:28.608Z,100264.44
2018-05-18T05:26:59.917Z,100265.63
2018-05-18T05:29:31.230Z,100272.27
2018-05-18T05:32:02.854Z,100274.33
2018-05-18T05:34:34.203Z,100284.41
2018-05-18T05:37:06.212Z,100283.97
2018-05-18T05:39:37.702Z,100289.47
2018-05-18T05:42:08.965Z,100281.19
2018-05-18T05:44:41.209Z,100279.02
2018-05-18T05:47:13.607Z,100288.05
2018-05-18T05:49:46.153Z,100275.64
2018-05-18T05:52:17.526Z,100281.66
2018-05-18T05:54:49.706Z,100291.24
2018-05-18T05:57:20.078Z,100287.92
2018-05-18T05:59:51.409Z,100280.92
2018-05-18T06:02:23.142Z,100283.77
2018-05-18T06:04:54.210Z,100288.80
2018-05-18T06:07:24.677Z,100291.23
2018-05-18T06:09:56.231Z,100286.72
2018-05-18T06:12:28.882Z,100290.58
2018-05-18T06:14:59.959Z,100289.16
2018-05-18T06:17:32.715Z,100293.41
2018-05-18T06:20:03.293Z,100307.25
2018-05-18T06:22:33.790Z,100299.70
2018-05-18T06:25:06.169Z,100301.37
2018-05-18T06:27:38.613Z,100303.66
2018-05-18T06:30:09.390Z,100305.46
2018-05-18T06:32:39.870Z,100294.08
2018-05-18T06:35:12.282Z,100304.38
2018-05-18T06:37:44.777Z,100312.22
2018-05-18T06:40:15.218Z,100306.50
2018-05-18T06:42:47.718Z,100309.29
2018-05-18T06:45:20.045Z,100315.11
2018-05-18T06:47:51.293Z,100320.57
2018-05-18T06:50:23.665Z,100319.36
2018-05-18T06:52:54.115Z,100326.78
2018-05-18T06:55:24.794Z,100329.97
2018-05-18T06:57:56.170Z,100324.44
2018-05-18T07:00:28.638Z,100327.11
2018-05-18T07:03:00.115Z,100330.63
2018-05-18T07:05:31.460Z,100329.26
2018-05-18T07:08:03.724Z,100321.66
2018-05-18T07:10:36.177Z,100328.03
2018-05-18T07:13:09.145Z,100330.80
2018-05-18T07:15:39.870Z,100329.86
2018-05-18T07:18:12.139Z,100325.17
2018-05-18T07:20:43.536Z,100332.16
2018-05-18T07:23:14.930Z,100328.68
2018-05-18T07:25:47.713Z,100329.41
2018-05-18T07:28:19.083Z,100329.72
2018-05-18T07:30:51.561Z,100330.45
2018-05-18T07:33:22.989Z,100339.53
2018-05-18T07:35:55.447Z,100335.19
2018-05-18T07:38:28.309Z,100339.00
2018-05-18T07:41:01.421Z,100332.94
2018-05-18T07:43:32.851Z,100337.59
2018-05-18T07:46:04.607Z,100330.04
2018-05-18T07:48:35.141Z,100339.31
2018-05-18T07:51:08.597Z,100338.36
2018-05-18T07:53:39.219Z,100338.20
2018-05-18T07:56:11.033Z,100340.31
2018-05-18T07:58:43.252Z,100336.23
2018-05-18T08:01:14.725Z,100347.53
2018-05-18T08:03:45.537Z,100337.73
2018-05-18T08:06:16.217Z,100331.98
2018-05-18T08:08:46.783Z,100332.33
2018-05-18T08:11:17.636Z,100330.77
2018-05-18T08:13:50.194Z,100329.84
2018-05-18T08:16:20.752Z,100330.39
2018-05-18T08:18:51.829Z,100324.83
2018-05-18T08:21:22.341Z,100329.31
2018-05-18T08:23:52.750Z,100332.92
2018-05-18T08:26:23.475Z,100327.60
2018-05-18T08:29:57.907Z,100331.64
2018-05-18T08:32:29.141Z,100333.58
2018-05-18T08:34:59.771Z,100328.02
2018-05-18T08:37:30.301Z,100337.95
2018-05-18T08:40:01.177Z,100342.30
2018-05-18T08:42:33.633Z,100343.07
2018-05-18T08:45:08.979Z,100339.42
2018-05-18T08:47:39.769Z,100346.10
2018-05-18T08:50:10.407Z,100349.52
2018-05-18T08:52:41.009Z,100349.06
2018-05-18T08:55:11.646Z,100354.27
2018-05-18T08:57:42.533Z,100360.34
2018-05-18T09:00:16.565Z,100362.18
2018-05-18T09:03:21.089Z,100361.84
2018-05-18T09:06:10.257Z,100356.04
2018-05-18T09:08:40.890Z,100350.90
2018-05-18T09:11:12.573Z,100345.42
2018-05-18T09:13:45.020Z,100356.11
2018-05-18T09:16:15.610Z,100362.33
2018-05-18T09:18:46.273Z,100360.78
2018-05-18T09:21:17.541Z,100361.52
2018-05-18T09:23:49.496Z,100357.70
2018-05-18T09:26:21.950Z,100363.45
2018-05-18T09:28:54.547Z,100362.80
2018-05-18T09:31:26.253Z,100361.72
2018-05-18T09:33:57.238Z,100363.96
2018-05-18T09:36:27.917Z,100363.91
2018-05-18T09:38:58.717Z,100362.03
2018-05-18T09:41:30.787Z,100358.06
2018-05-18T09:44:01.585Z,100359.26
2018-05-18T09:46:31.997Z,100363.64
2018-05-18T09:49:03.562Z,100366.25
2018-05-18T09:51:36.625Z,100363.35
2018-05-18T09:54:10.497Z,100362.40
2018-05-18T09:56:42.868Z,100368.58
2018-05-18T09:59:15.173Z,100365.96
2018-05-18T10:04:28.809Z,100353.48
2018-05-18T10:07:00.568Z,100354.05
2018-05-18T10:09:33.390Z,100354.64
2018-05-18T10:12:05.659Z,100354.55
2018-05-18T10:14:37.954Z,100359.14
2018-05-18T10:17:10.514Z,100354.11
2018-05-18T10:19:44.709Z,100358.80
2018-05-18T10:22:17.842Z,100356.77
2018-05-18T10:24:48.375Z,100361.62
2018-05-18T10:27:20.798Z,100354.46
2018-05-18T10:29:53.592Z,100355.16
2018-05-18T10:32:26.439Z,100359.44
2018-05-18T10:34:58.962Z,100347.44
2018-05-18T10:37:29.652Z,100348.04
2018-05-18T10:40:00.636Z,100347.31
2018-05-18T10:42:32.909Z,100352.31
2018-05-18T10:45:06.270Z,100346.91
2018-05-18T10:47:37.848Z,100337.67
2018-05-18T10:50:09.353Z,100339.42
2018-05-18T10:52:46.058Z,100340.61
2018-05-18T10:55:22.448Z,100338.92
2018-05-18T10:57:55.404Z,100332.27
2018-05-18T11:00:26.283Z,100334.39
2018-05-18T11:02:58.282Z,100324.15
2018-05-18T11:05:28.733Z,100330.67
2018-05-18T11:07:59.849Z,100324.70
2018-05-18T11:10:30.411Z,100328.21
2018-05-18T11:13:01.331Z,100326.94
2018-05-18T11:15:32.237Z,100326.33
2018-05-18T11:18:04.623Z,100320.36
2018-05-18T11:20:37.078Z,100319.01
2018-05-18T11:23:07.956Z,100323.05
2018-05-18T11:25:40.431Z,100319.69
2018-05-18T11:28:13.184Z,100321.42
2018-05-18T11:30:43.887Z,100311.32
2018-05-18T11:33:16.445Z,100318.91
2018-05-18T11:35:46.948Z,100321.77
2018-05-18T11:38:21.393Z,100320.56
2018-05-18T11:40:53.715Z,100315.28
2018-05-18T11:43:26.033Z,100311.91
2018-05-18T11:45:58.701Z,100314.01
2018-05-18T11:48:29.208Z,100309.76
2018-05-18T11:51:00.098Z,100307.71
2018-05-18T11:53:32.339Z,100310.47
2018-05-18T11:56:05.005Z,100310.19
2018-05-18T11:58:35.471Z,100307.77
2018-05-18T12:01:06.580Z,100312.94
2018-05-18T12:03:39.230Z,100315.27
2018-05-18T12:06:09.825Z,100309.70
2018-05-18T12:08:42.188Z,100311.50
2018-05-18T12:11:15.333Z,100315.03
2018-05-18T12:13:45.784Z,100306.03
2018-05-18T12:16:18.372Z,100321.34
2018-05-18T12:18:49.593Z,100321.55
2018-05-18T12:21:20.096Z,100319.20
2018-05-18T12:23:50.933Z,100320.72
2018-05-18T12:26:24.286Z,100319.57
2018-05-18T12:28:54.813Z,100318.74
2018-05-18T12:31:25.558Z,100319.39
2018-05-18T12:33:56.085Z,100318.06
2018-05-18T12:36:26.581Z,100318.55
2018-05-18T12:38:57.596Z,100317.84
2018-05-18T12:41:28.924Z,100307.78
2018-05-18T12:44:01.753Z,100311.50
2018-05-18T12:46:34.209Z,100314.59
2018-05-18T12:49:06.896Z,100314.91
2018-05-18T12:51:39.230Z,100315.97
2018-05-18T12:54:11.482Z,100307.89
2018-05-18T12:56:43.782Z,100316.02
2018-05-18T12:59:16.130Z,100304.16
2018-05-18T13:01:46.601Z,100305.05
2018-05-18T13:04:19.860Z,100301.27
2018-05-18T13:06:53.709Z,100304.03
2018-05-18T13:09:26.032Z,100302.13
2018-05-18T13:11:57.643Z,100303.03
2018-05-18T13:14:29.413Z,100309.08
2018-05-18T13:17:00.377Z,100321.11
2018-05-18T13:19:30.875Z,100309.16
2018-05-18T13:22:01.840Z,100308.59
2018-05-18T13:24:34.145Z,100306.46
2018-05-18T13:27:06.403Z,100299.05
2018-05-18T13:29:36.899Z,100307.09
2018-05-18T13:32:07.423Z,100300.44
2018-05-18T13:34:39.174Z,100303.88
2018-05-18T13:37:11.406Z,100296.44
2018-05-18T13:39:43.739Z,100299.78
2018-05-18T13:42:14.204Z,100303.55
2018-05-18T13:44:46.551Z,100296.52
2018-05-18T13:47:19.851Z,100298.14
2018-05-18T13:49:50.581Z,100302.01
2018-05-18T13:52:23.690Z,100294.22
2018-05-18T13:54:56.099Z,100302.95
2018-05-18T13:57:26.663Z,100291.98
2018-05-18T13:59:59.304Z,100292.36
2018-05-18T14:02:31.654Z,100292.83
2018-05-18T14:05:02.434Z,100291.32
2018-05-18T14:07:34.746Z,100294.69
2018-05-18T14:10:06.992Z,100294.59
2018-05-18T14:12:39.281Z,100289.07
2018-05-18T14:15:09.714Z,100284.86
2018-05-18T14:17:40.273Z,100286.79
2018-05-18T14:20:12.937Z,100288.27
2018-05-18T14:22:45.283Z,100286.09
2018-05-18T14:25:15.825Z,100285.34
2018-05-18T14:27:46.409Z,100292.42
2018-05-18T14:30:16.965Z,100292.41
2018-05-18T14:32:47.461Z,100296.16
2018-05-18T14:35:18.688Z,100294.03
2018-05-18T14:37:51.022Z,100288.13
2018-05-18T14:40:23.639Z,100277.03
2018-05-18T14:42:54.227Z,100277.78
2018-05-18T14:45:24.697Z,100272.22
2018-05-18T14:47:55.236Z,100271.95
2018-05-18T14:50:27.501Z,100274.37
2018-05-18T14:52:58.185Z,100274.59
2018-05-18T14:55:28.844Z,100274.91
2018-05-18T14:57:59.889Z,100281.83
2018-05-18T15:00:30.346Z,100281.26
